createdAt,value
2018-08-10T00:01:27.036Z,71.12
2018-08-10T00:06:21.513Z,71.34
2018-08-10T00:11:15.996Z,69.84
2018-08-10T00:16:10.528Z,68.80
2018-08-10T00:21:05.049Z,68.98
2018-08-10T00:25:59.537Z,68.78
2018-08-10T00:30:54.117Z,68.21
2018-08-10T00:35:48.692Z,68.45
2018-08-10T00:40:43.136Z,67.83
2018-08-10T00:45:37.596Z,67.19
2018-08-10T00:50:32.060Z,66.93
2018-08-10T00:55:26.605Z,66.97
2018-08-10T01:00:23.925Z,65.61
2018-08-10T01:05:18.476Z,65.22
2018-08-10T01:10:15.696Z,64.79
2018-08-10T01:15:12.854Z,63.36
2018-08-10T01:20:14.976Z,63.62
2018-08-10T01:25:09.468Z,62.76
2018-08-10T01:30:04.024Z,63.74
2018-08-10T01:34:58.496Z,62.98
2018-08-10T01:39:52.980Z,62.27
2018-08-10T01:44:47.416Z,62.03
2018-08-10T01:49:41.872Z,61.97
2018-08-10T01:54:36.336Z,62.15
2018-08-10T01:59:30.854Z,61.88
2018-08-10T02:04:25.334Z,61.84
2018-08-10T02:09:19.872Z,60.37
2018-08-10T02:14:14.624Z,60.73
2018-08-10T02:19:09.106Z,62.24
2018-08-10T02:24:03.636Z,62.22
2018-08-10T02:28:58.131Z,62.89
2018-08-10T02:33:52.617Z,62.66
2018-08-10T02:38:47.144Z,63.60
2018-08-10T02:43:41.618Z,64.15
2018-08-10T02:48:36.095Z,65.62
2018-08-10T02:53:30.561Z,65.49
2018-08-10T02:58:25.066Z,66.62
2018-08-10T03:03:19.612Z,66.47
2018-08-10T03:08:14.084Z,64.57
2018-08-10T03:13:08.557Z,65.56
2018-08-10T03:18:03.082Z,66.17
2018-08-10T03:22:57.585Z,66.77
2018-08-10T03:27:52.056Z,69.40
2018-08-10T03:32:46.555Z,71.43
2018-08-10T03:37:41.040Z,73.10
2018-08-10T03:42:35.577Z,73.25
2018-08-10T03:47:30.098Z,73.30
2018-08-10T03:52:24.613Z,74.90
2018-08-10T03:57:19.129Z,75.75
2018-08-10T04:02:13.665Z,75.59
2018-08-10T04:07:08.232Z,75.50
2018-08-10T04:12:02.733Z,76.44
2018-08-10T04:16:57.220Z,76.92
2018-08-10T04:21:51.713Z,77.24
2018-08-10T04:26:46.264Z,76.84
2018-08-10T04:31:40.778Z,77.33
2018-08-10T04:36:35.417Z,76.50
2018-08-10T04:41:29.972Z,76.25
2018-08-10T04:46:24.475Z,75.42
2018-08-10T04:51:18.995Z,75.00
2018-08-10T04:56:13.492Z,75.14
2018-08-10T05:01:08.008Z,74.70
2018-08-10T05:06:02.529Z,74.55
2018-08-10T05:10:57.109Z,75.37
2018-08-10T05:15:51.646Z,74.31
2018-08-10T05:20:46.222Z,75.83
2018-08-10T05:25:40.862Z,75.14
2018-08-10T05:30:35.439Z,77.42
2018-08-10T05:35:30.005Z,75.59
2018-08-10T05:40:24.584Z,75.41
2018-08-10T05:45:19.145Z,74.81
2018-08-10T05:50:13.648Z,74.02
2018-08-10T05:55:08.628Z,73.77
2018-08-10T06:00:03.245Z,74.92
2018-08-10T06:04:57.756Z,75.40
2018-08-10T06:09:52.308Z,75.35
2018-08-10T06:14:46.828Z,73.09
2018-08-10T06:19:41.423Z,73.81
2018-08-10T06:24:36.037Z,72.79
2018-08-10T06:29:30.420Z,71.94
2018-08-10T06:34:24.880Z,73.35
2018-08-10T06:39:19.318Z,71.23
2018-08-10T06:44:13.752Z,69.63
2018-08-10T06:49:08.163Z,68.81
2018-08-10T06:54:03.111Z,68.80
2018-08-10T06:58:57.815Z,67.49
2018-08-10T07:03:52.312Z,66.37
2018-08-10T07:08:46.848Z,64.72
2018-08-10T07:13:41.358Z,65.25
2018-08-10T07:18:35.859Z,64.32
2018-08-10T07:23:30.402Z,63.11
2018-08-10T07:28:25.064Z,62.48
2018-08-10T07:33:19.554Z,61.58
2018-08-10T07:38:14.360Z,62.90
2018-08-10T07:43:08.846Z,61.54
2018-08-10T07:48:03.431Z,61.25
2018-08-10T07:52:57.960Z,61.39
2018-08-10T07:57:52.437Z,60.66
2018-08-10T08:02:46.924Z,59.58
2018-08-10T08:07:41.433Z,59.12
2018-08-10T08:12:36.001Z,57.08
2018-08-10T08:17:30.488Z,56.03
2018-08-10T08:22:24.953Z,56.07
2018-08-10T08:27:20.043Z,55.94
2018-08-10T08:32:14.633Z,54.60
2018-08-10T08:37:09.666Z,53.06
2018-08-10T08:42:04.512Z,51.38
2018-08-10T08:47:35.896Z,51.39
2018-08-10T08:52:30.546Z,49.92
2018-08-10T08:57:25.943Z,48.97
2018-08-10T09:02:21.406Z,51.41
2018-08-10T09:07:16.707Z,50.51
2018-08-10T09:12:11.734Z,49.17
2018-08-10T09:17:08.261Z,48.61
2018-08-10T09:22:03.202Z,47.00
2018-08-10T09:26:58.138Z,45.72
2018-08-10T09:32:13.059Z,45.39
2018-08-10T09:37:18.833Z,46.96
2018-08-10T09:42:15.839Z,48.36
2018-08-10T09:47:35.510Z,48.31
2018-08-10T09:52:53.783Z,47.20
2018-08-10T09:57:49.097Z,48.42
2018-08-10T10:02:47.569Z,45.67
2018-08-10T10:07:42.377Z,43.35
2018-08-10T10:12:37.267Z,44.71
2018-08-10T10:17:31.950Z,44.17
2018-08-10T10:22:26.600Z,44.00
2018-08-10T10:27:21.128Z,44.09
2018-08-10T10:32:15.593Z,44.85
2018-08-10T10:37:10.368Z,46.09
2018-08-10T10:42:07.458Z,46.67
2018-08-10T10:47:02.373Z,45.63
2018-08-10T10:51:56.964Z,45.04
2018-08-10T10:56:52.395Z,44.17
2018-08-10T11:02:01.101Z,42.64
2018-08-10T11:07:17.248Z,43.96
2018-08-10T11:12:12.109Z,42.15
2018-08-10T11:17:18.180Z,42.67
2018-08-10T11:22:23.672Z,42.94
2018-08-10T11:27:18.522Z,41.73
2018-08-10T11:32:14.742Z,42.38
2018-08-10T11:37:11.304Z,44.44
2018-08-10T11:42:06.333Z,45.25
2018-08-10T11:47:01.252Z,45.01
2018-08-10T11:51:58.239Z,45.12
2018-08-10T11:56:52.865Z,43.99
2018-08-10T12:01:47.903Z,44.71
2018-08-10T12:06:42.636Z,47.48
2018-08-10T12:11:37.485Z,51.28
2018-08-10T12:16:32.326Z,51.18
2018-08-10T12:21:26.989Z,50.30
2018-08-10T12:26:22.234Z,49.03
2018-08-10T12:31:17.042Z,47.86
2018-08-10T12:36:12.384Z,49.70
2018-08-10T12:41:07.921Z,50.48
2018-08-10T12:46:03.235Z,50.79
2018-08-10T12:50:58.675Z,49.66
2018-08-10T12:55:53.425Z,50.21
2018-08-10T13:00:48.378Z,49.29
2018-08-10T13:05:43.508Z,49.71
2018-08-10T13:10:38.908Z,48.99
2018-08-10T13:15:33.744Z,48.69
2018-08-10T13:20:29.496Z,49.14
2018-08-10T13:25:24.241Z,48.98
2018-08-10T13:30:19.138Z,46.72
2018-08-10T13:35:13.765Z,48.16
2018-08-10T13:40:08.443Z,48.58
2018-08-10T13:45:03.153Z,48.43
2018-08-10T13:49:58.595Z,48.21
2018-08-10T14:00:02.849Z,47.22
2018-08-10T14:04:59.556Z,48.58
2018-08-10T14:09:54.301Z,47.34
2018-08-10T14:14:49.781Z,46.81
2018-08-10T14:19:44.709Z,50.02
2018-08-10T14:24:39.264Z,47.30
2018-08-10T14:29:33.873Z,49.18
2018-08-10T14:34:29.433Z,47.55
2018-08-10T14:39:25.528Z,48.67
2018-08-10T14:44:24.008Z,49.74
2018-08-10T14:49:20.959Z,50.97
2018-08-10T14:54:15.613Z,50.57
2018-08-10T14:59:10.192Z,50.94
2018-08-10T15:04:04.822Z,51.32
2018-08-10T15:09:10.314Z,50.08
2018-08-10T15:14:16.376Z,50.53
2018-08-10T15:19:11.256Z,50.52
2018-08-10T15:24:08.776Z,49.65
2018-08-10T15:29:06.168Z,49.45
2018-08-10T15:34:03.847Z,48.98
2018-08-10T15:39:02.916Z,48.94
2018-08-10T15:44:09.265Z,49.62
2018-08-10T15:49:04.197Z,49.62
2018-08-10T15:53:58.801Z,49.12
2018-08-10T15:59:01.793Z,48.26
2018-08-10T16:03:56.417Z,48.78
2018-08-10T16:08:51.214Z,48.88
2018-08-10T16:13:45.837Z,48.80
2018-08-10T16:18:40.457Z,49.04
2018-08-10T16:23:35.009Z,48.88
2018-08-10T16:28:30.426Z,49.15
2018-08-10T16:33:25.440Z,48.63
2018-08-10T16:38:20.049Z,50.13
2018-08-10T16:43:14.732Z,49.71
2018-08-10T16:48:12.464Z,48.89
2018-08-10T16:53:07.201Z,48.65
2018-08-10T16:58:02.128Z,49.39
2018-08-10T17:02:56.917Z,49.50
2018-08-10T17:07:51.752Z,48.24
2018-08-10T17:12:46.780Z,48.46
2018-08-10T17:17:42.221Z,49.90
2018-08-10T17:22:36.813Z,49.91
2018-08-10T17:27:32.612Z,50.26
2018-08-10T17:32:27.146Z,50.50
2018-08-10T17:37:21.777Z,50.78
2018-08-10T17:42:16.320Z,50.37
2018-08-10T17:47:10.897Z,50.15
2018-08-10T17:52:05.468Z,50.29
2018-08-10T17:57:00.134Z,50.52
2018-08-10T18:01:54.718Z,51.22
2018-08-10T18:06:49.450Z,51.75
2018-08-10T18:11:43.992Z,51.67
2018-08-10T18:16:38.550Z,51.81
2018-08-10T18:21:33.582Z,52.63
2018-08-10T18:26:28.425Z,52.76
2018-08-10T18:31:23.004Z,52.89
2018-08-10T18:36:17.542Z,53.27
2018-08-10T18:41:12.121Z,54.34
2018-08-10T18:46:07.117Z,54.38
2018-08-10T18:51:01.669Z,53.27
2018-08-10T18:55:56.263Z,52.91
2018-08-10T19:00:50.911Z,52.61
2018-08-10T19:05:45.553Z,51.46
2018-08-10T19:10:40.330Z,51.59
2018-08-10T19:15:34.893Z,51.57
2018-08-10T19:20:29.470Z,51.17
2018-08-10T19:25:24.058Z,52.08
2018-08-10T19:30:20.105Z,52.02
2018-08-10T19:35:15.164Z,52.67
2018-08-10T19:40:12.809Z,52.54
2018-08-10T19:45:09.779Z,52.80
2018-08-10T19:50:04.901Z,54.22
2018-08-10T19:54:59.478Z,56.60
2018-08-10T19:59:54.181Z,56.69
2018-08-10T20:04:48.794Z,57.31
2018-08-10T20:09:43.398Z,57.68
2018-08-10T20:14:37.973Z,59.27
2018-08-10T20:19:32.520Z,59.23
2018-08-10T20:24:27.074Z,59.94
2018-08-10T20:29:21.596Z,59.27
2018-08-10T20:34:16.165Z,60.65
2018-08-10T20:39:11.726Z,61.24
2018-08-10T20:44:06.369Z,61.35
2018-08-10T20:49:01.198Z,60.99
2018-08-10T20:53:55.768Z,60.83
2018-08-10T20:58:50.313Z,61.57
2018-08-10T21:03:44.944Z,61.73
2018-08-10T21:08:39.515Z,61.50
2018-08-10T21:13:34.121Z,63.27
2018-08-10T21:18:28.647Z,63.60
2018-08-10T21:23:23.217Z,63.87
2018-08-10T21:28:17.805Z,64.84
2018-08-10T21:33:12.445Z,64.95
2018-08-10T21:38:07.013Z,66.00
2018-08-10T21:43:01.638Z,66.42
2018-08-10T21:47:56.188Z,66.34
2018-08-10T21:52:50.708Z,66.72
2018-08-10T21:57:45.306Z,67.07
2018-08-10T22:02:39.850Z,66.92
2018-08-10T22:07:34.460Z,67.84
2018-08-10T22:12:29.082Z,68.02
2018-08-10T22:17:28.724Z,68.01
2018-08-10T22:22:23.245Z,68.59
2018-08-10T22:27:17.813Z,67.27
2018-08-10T22:32:12.348Z,68.51
2018-08-10T22:37:06.905Z,68.84
2018-08-10T22:42:01.488Z,69.20
2018-08-10T22:46:56.055Z,69.55
2018-08-10T22:51:50.649Z,69.11
2018-08-10T22:56:45.428Z,68.83
2018-08-10T23:01:40.052Z,69.15
2018-08-10T23:06:34.661Z,70.10
2018-08-10T23:11:29.232Z,70.43
2018-08-10T23:16:23.824Z,70.50
2018-08-10T23:21:18.760Z,71.00
2018-08-10T23:26:13.314Z,70.96
2018-08-10T23:31:08.014Z,72.09
2018-08-10T23:36:02.740Z,72.24
2018-08-10T23:40:57.331Z,72.46
2018-08-10T23:45:51.961Z,72.38
2018-08-10T23:50:46.527Z,72.54
2018-08-10T23:55:41.052Z,72.67
